createdAt,value
2023-01-29T00:02:13.910Z,9.15
2023-01-29T00:04:41.267Z,8.82
2023-01-29T00:07:08.776Z,8.85
2023-01-29T00:09:36.105Z,10.10
2023-01-29T00:12:03.709Z,9.35
2023-01-29T00:14:31.050Z,9.43
2023-01-29T00:16:58.383Z,8.88
2023-01-29T00:19:25.640Z,8.25
2023-01-29T00:21:53.183Z,9.57
2023-01-29T00:24:20.684Z,9.60
2023-01-29T00:26:51.081Z,9.35
2023-01-29T00:29:18.631Z,9.77
2023-01-29T00:31:46.217Z,9.23
2023-01-29T00:34:13.596Z,9.73
2023-01-29T00:36:40.958Z,9.32
2023-01-29T00:39:10.921Z,9.98
2023-01-29T00:41:57.724Z,8.90
2023-01-29T00:44:43.764Z,8.90
2023-01-29T00:47:43.373Z,10.00
2023-01-29T00:50:11.493Z,9.77
2023-01-29T00:52:40.894Z,10.38
2023-01-29T00:55:08.786Z,9.38
2023-01-29T00:57:36.678Z,9.70
2023-01-29T01:00:06.126Z,8.95
2023-01-29T01:02:52.468Z,9.70
2023-01-29T01:05:19.961Z,9.35
2023-01-29T01:07:58.051Z,9.63
2023-01-29T01:10:32.587Z,10.02
2023-01-29T01:13:04.598Z,9.63
2023-01-29T01:15:33.348Z,9.75
2023-01-29T01:18:01.578Z,9.27
2023-01-29T01:20:29.871Z,10.27
2023-01-29T01:22:57.404Z,9.80
2023-01-29T01:25:25.884Z,9.48
2023-01-29T01:27:54.071Z,9.68
2023-01-29T01:30:21.482Z,9.48
2023-01-29T01:32:48.817Z,9.00
2023-01-29T01:35:16.622Z,10.13
2023-01-29T01:37:43.917Z,9.82
2023-01-29T01:40:18.574Z,8.57
2023-01-29T01:42:49.025Z,8.85
2023-01-29T01:45:27.512Z,8.60
2023-01-29T01:48:21.522Z,9.07
2023-01-29T01:50:51.464Z,9.00
2023-01-29T01:53:24.960Z,8.88
2023-01-29T01:55:56.643Z,9.05
2023-01-29T01:58:27.461Z,8.95
2023-01-29T02:00:55.459Z,9.00
2023-01-29T02:03:42.239Z,9.23
2023-01-29T02:06:29.658Z,9.32
2023-01-29T02:09:21.825Z,9.13
2023-01-29T02:11:49.080Z,9.32
2023-01-29T02:14:16.750Z,8.50
2023-01-29T02:16:44.360Z,9.38
2023-01-29T02:19:15.904Z,8.77
2023-01-29T02:21:49.389Z,8.65
2023-01-29T02:24:16.722Z,9.45
2023-01-29T02:26:50.292Z,8.68
2023-01-29T02:29:30.518Z,9.18
2023-01-29T02:31:58.041Z,8.55
2023-01-29T02:34:58.352Z,9.35
2023-01-29T02:37:31.824Z,8.85
2023-01-29T02:40:21.019Z,9.23
2023-01-29T02:42:53.376Z,9.35
2023-01-29T02:45:25.761Z,8.90
2023-01-29T02:47:55.337Z,10.00
2023-01-29T02:50:27.293Z,8.68
2023-01-29T02:53:02.602Z,9.52
2023-01-29T02:55:39.142Z,9.35
2023-01-29T02:58:12.348Z,9.57
2023-01-29T03:00:42.397Z,9.32
2023-01-29T03:03:13.709Z,8.80
2023-01-29T03:05:45.854Z,9.57
2023-01-29T03:08:17.321Z,9.88
2023-01-29T03:10:48.915Z,8.82
2023-01-29T03:13:23.709Z,9.13
2023-01-29T03:16:01.492Z,9.73
2023-01-29T03:18:50.899Z,9.43
2023-01-29T03:21:39.489Z,8.85
2023-01-29T03:24:28.378Z,8.77
2023-01-29T03:27:15.772Z,8.95
2023-01-29T03:30:05.586Z,9.98
2023-01-29T03:32:49.288Z,9.07
2023-01-29T03:35:21.779Z,8.93
2023-01-29T03:37:49.616Z,9.45
2023-01-29T03:40:17.264Z,10.48
2023-01-29T03:42:50.672Z,9.85
2023-01-29T03:45:18.008Z,9.93
2023-01-29T03:47:48.722Z,10.05
2023-01-29T03:50:19.249Z,9.85
2023-01-29T03:52:49.683Z,10.57
2023-01-29T03:55:36.467Z,11.18
2023-01-29T03:58:07.018Z,10.07
2023-01-29T04:00:42.488Z,10.88
2023-01-29T04:03:22.595Z,11.05
2023-01-29T04:05:53.177Z,11.02
2023-01-29T04:10:55.493Z,10.68
2023-01-29T04:13:24.858Z,10.93
2023-01-29T04:15:55.652Z,10.60
2023-01-29T04:18:38.677Z,10.73
2023-01-29T04:21:08.569Z,11.27
2023-01-29T04:23:36.743Z,11.25
2023-01-29T04:26:19.087Z,12.02
2023-01-29T04:29:05.326Z,11.18
2023-01-29T04:31:41.531Z,11.30
2023-01-29T04:34:27.168Z,11.13
2023-01-29T04:37:24.030Z,11.75
2023-01-29T04:40:02.493Z,11.15
2023-01-29T04:42:49.714Z,11.80
2023-01-29T04:45:21.028Z,11.70
2023-01-29T04:47:52.076Z,11.30
2023-01-29T04:50:22.378Z,11.05
2023-01-29T04:52:52.755Z,11.13
2023-01-29T04:55:32.393Z,11.60
2023-01-29T04:58:10.310Z,11.07
2023-01-29T05:00:45.058Z,10.65
2023-01-29T05:03:14.252Z,11.68
2023-01-29T05:05:44.079Z,11.40
2023-01-29T05:08:13.221Z,11.35
2023-01-29T05:10:40.974Z,10.90
2023-01-29T05:13:10.462Z,11.82
2023-01-29T05:15:46.173Z,11.45
2023-01-29T05:18:13.484Z,11.50
2023-01-29T05:20:42.337Z,11.85
2023-01-29T05:23:10.884Z,12.10
2023-01-29T05:25:38.413Z,11.73
2023-01-29T05:28:14.052Z,11.63
2023-01-29T05:30:41.507Z,11.60
2023-01-29T05:33:19.780Z,12.13
2023-01-29T05:35:47.384Z,11.57
2023-01-29T05:38:15.457Z,12.23
2023-01-29T05:40:42.974Z,12.10
2023-01-29T05:43:17.314Z,11.70
2023-01-29T05:45:44.802Z,11.93
2023-01-29T05:48:12.227Z,12.27
2023-01-29T05:50:39.587Z,13.32
2023-01-29T05:53:06.965Z,12.32
2023-01-29T05:55:34.267Z,12.13
2023-01-29T05:58:01.711Z,12.38
2023-01-29T06:00:29.128Z,11.80
2023-01-29T06:02:56.829Z,12.32
2023-01-29T06:05:24.168Z,12.45
2023-01-29T06:07:51.452Z,11.85
2023-01-29T06:10:19.380Z,12.05
2023-01-29T06:12:46.856Z,12.45
2023-01-29T06:15:18.117Z,12.75
2023-01-29T06:17:45.383Z,12.60
2023-01-29T06:20:12.841Z,11.70
2023-01-29T06:22:40.088Z,12.50
2023-01-29T06:25:07.889Z,13.00
2023-01-29T06:27:35.127Z,11.43
2023-01-29T06:30:02.585Z,12.65
2023-01-29T06:32:29.907Z,11.82
2023-01-29T06:34:57.300Z,12.65
2023-01-29T06:37:24.604Z,12.32
2023-01-29T06:39:51.968Z,12.40
2023-01-29T06:42:20.553Z,12.65
2023-01-29T06:44:47.728Z,11.85
2023-01-29T06:47:15.037Z,11.77
2023-01-29T06:49:42.350Z,12.50
2023-01-29T06:52:09.700Z,11.57
2023-01-29T06:54:36.940Z,11.05
2023-01-29T06:57:04.343Z,12.23
2023-01-29T06:59:31.722Z,12.27
2023-01-29T07:01:59.487Z,11.95
2023-01-29T07:04:26.770Z,11.50
2023-01-29T07:06:54.220Z,11.63
2023-01-29T07:09:21.500Z,11.60
2023-01-29T07:11:48.787Z,11.05
2023-01-29T07:14:16.149Z,11.88
2023-01-29T07:16:43.500Z,11.77
2023-01-29T07:19:11.022Z,12.18
2023-01-29T07:21:38.367Z,11.90
2023-01-29T07:24:05.782Z,11.13
2023-01-29T07:26:33.086Z,11.30
2023-01-29T07:29:00.399Z,11.93
2023-01-29T07:31:27.807Z,11.52
2023-01-29T07:33:55.944Z,12.05
2023-01-29T07:36:24.177Z,11.85
2023-01-29T07:38:52.168Z,11.40
2023-01-29T07:41:19.600Z,11.82
2023-01-29T07:43:47.982Z,11.38
2023-01-29T07:46:15.472Z,11.55
2023-01-29T07:48:42.737Z,11.52
2023-01-29T07:51:10.125Z,12.23
2023-01-29T07:53:37.591Z,11.45
2023-01-29T07:56:04.971Z,11.98
2023-01-29T07:58:35.578Z,11.73
2023-01-29T08:01:07.942Z,11.80
2023-01-29T08:03:35.963Z,11.02
2023-01-29T08:06:04.132Z,12.23
2023-01-29T08:08:31.835Z,10.98
2023-01-29T08:11:01.340Z,11.98
2023-01-29T08:13:28.880Z,11.00
2023-01-29T08:15:59.581Z,11.00
2023-01-29T08:18:26.908Z,10.63
2023-01-29T08:20:56.920Z,11.35
2023-01-29T08:23:24.336Z,10.38
2023-01-29T08:25:51.584Z,11.02
2023-01-29T08:28:18.812Z,11.05
2023-01-29T08:30:46.160Z,10.38
2023-01-29T08:33:13.491Z,10.52
2023-01-29T08:35:41.348Z,10.45
2023-01-29T08:38:10.647Z,11.23
2023-01-29T08:43:09.436Z,10.23
2023-01-29T08:45:38.621Z,10.48
2023-01-29T08:48:06.329Z,10.55
2023-01-29T08:50:35.003Z,10.27
2023-01-29T08:53:03.991Z,11.80
2023-01-29T08:55:31.342Z,10.48
2023-01-29T08:57:58.871Z,10.40
2023-01-29T09:00:26.175Z,10.88
2023-01-29T09:02:53.521Z,10.13
2023-01-29T09:05:20.811Z,10.60
2023-01-29T09:07:48.133Z,10.77
2023-01-29T09:10:16.409Z,10.25
2023-01-29T09:12:43.716Z,11.02
2023-01-29T09:15:11.227Z,11.10
2023-01-29T09:17:38.509Z,10.43
2023-01-29T09:20:08.899Z,11.55
2023-01-29T09:22:36.457Z,11.43
2023-01-29T09:25:04.408Z,11.05
2023-01-29T09:27:31.664Z,10.80
2023-01-29T09:29:58.884Z,9.82
2023-01-29T09:32:52.138Z,9.98
2023-01-29T09:35:13.519Z,11.13
2023-01-29T09:37:40.881Z,10.38
2023-01-29T09:40:08.973Z,11.77
2023-01-29T09:42:45.381Z,10.57
2023-01-29T09:45:31.586Z,10.45
2023-01-29T09:48:05.748Z,10.88
2023-01-29T09:50:40.163Z,10.93
2023-01-29T09:53:16.616Z,11.30
2023-01-29T09:55:47.382Z,10.60
2023-01-29T09:58:28.747Z,10.57
2023-01-29T10:00:59.080Z,10.35
2023-01-29T10:03:29.581Z,11.10
2023-01-29T10:06:16.006Z,10.85
2023-01-29T10:09:01.576Z,10.93
2023-01-29T10:11:47.860Z,11.13
2023-01-29T10:14:50.733Z,10.80
2023-01-29T10:17:20.863Z,10.73
2023-01-29T10:19:51.286Z,10.88
2023-01-29T10:22:21.694Z,11.50
2023-01-29T10:24:52.242Z,11.80
2023-01-29T10:27:20.169Z,10.35
2023-01-29T10:29:49.669Z,10.85
2023-01-29T10:32:21.773Z,11.40
2023-01-29T10:34:52.137Z,11.90
2023-01-29T10:37:24.388Z,11.05
2023-01-29T10:39:51.992Z,11.25
2023-01-29T10:42:24.794Z,10.98
2023-01-29T10:44:55.294Z,11.68
2023-01-29T10:47:40.545Z,11.75
2023-01-29T10:50:11.038Z,11.73
2023-01-29T10:52:58.085Z,11.63
2023-01-29T10:55:25.597Z,12.20
2023-01-29T10:58:08.653Z,11.65
2023-01-29T11:00:37.792Z,12.02
2023-01-29T11:03:27.136Z,11.45
2023-01-29T11:06:14.349Z,12.90
2023-01-29T11:08:50.436Z,11.20
2023-01-29T11:13:54.456Z,11.07
2023-01-29T11:16:24.697Z,12.98
2023-01-29T11:18:56.843Z,12.30
2023-01-29T11:21:25.519Z,12.05
2023-01-29T11:24:17.468Z,12.48
2023-01-29T11:26:46.594Z,12.50
2023-01-29T11:29:33.549Z,15.05
2023-01-29T11:32:01.903Z,14.77
2023-01-29T11:34:31.131Z,14.00
2023-01-29T11:36:59.690Z,12.95
2023-01-29T11:39:28.015Z,13.57
2023-01-29T11:42:04.052Z,13.95
2023-01-29T11:44:31.454Z,13.13
2023-01-29T11:47:07.976Z,13.38
2023-01-29T11:49:36.140Z,13.82
2023-01-29T11:52:05.040Z,13.38
2023-01-29T11:54:35.765Z,14.20
2023-01-29T11:57:03.667Z,12.95
2023-01-29T11:59:34.146Z,13.32
2023-01-29T12:02:06.583Z,13.43
2023-01-29T12:04:34.006Z,13.30
2023-01-29T12:07:01.434Z,12.73
2023-01-29T12:09:30.323Z,13.02
2023-01-29T12:12:17.110Z,12.95
2023-01-29T12:14:47.537Z,13.23
2023-01-29T12:17:19.622Z,13.23
2023-01-29T12:19:50.005Z,13.90
2023-01-29T12:22:26.587Z,13.70
2023-01-29T12:24:57.886Z,14.40
2023-01-29T12:27:44.083Z,13.98
2023-01-29T12:30:14.817Z,13.98
2023-01-29T12:32:50.443Z,12.65
2023-01-29T12:35:23.861Z,13.43
2023-01-29T12:38:10.285Z,14.05
2023-01-29T12:41:00.925Z,13.90
2023-01-29T12:43:31.257Z,13.85
2023-01-29T12:46:00.081Z,14.50
2023-01-29T12:48:35.414Z,13.48
2023-01-29T12:51:08.649Z,13.25
2023-01-29T12:53:39.540Z,13.88
2023-01-29T12:56:10.401Z,13.13
2023-01-29T12:58:42.550Z,14.20
2023-01-29T13:01:17.389Z,12.98
2023-01-29T13:03:52.332Z,14.00
2023-01-29T13:06:43.077Z,13.85
2023-01-29T13:09:15.637Z,13.27
2023-01-29T13:11:53.316Z,13.88
2023-01-29T13:14:26.217Z,13.93
2023-01-29T13:16:55.236Z,15.05
2023-01-29T13:19:32.276Z,14.48
2023-01-29T13:22:01.503Z,14.55
2023-01-29T13:24:34.473Z,14.48
2023-01-29T13:27:01.766Z,14.48
2023-01-29T13:29:31.130Z,14.32
2023-01-29T13:32:02.640Z,13.43
2023-01-29T13:34:33.112Z,13.60
2023-01-29T13:37:02.372Z,14.48
2023-01-29T13:39:31.142Z,13.80
2023-01-29T13:41:59.521Z,14.98
2023-01-29T13:44:26.903Z,13.90
2023-01-29T13:46:58.814Z,14.70
2023-01-29T13:49:27.955Z,14.05
2023-01-29T13:51:55.613Z,13.90
2023-01-29T13:54:25.080Z,13.30
2023-01-29T13:56:55.409Z,14.13
2023-01-29T13:59:24.141Z,13.30
2023-01-29T14:01:51.533Z,13.88
2023-01-29T14:04:29.101Z,13.52
2023-01-29T14:06:57.743Z,13.55
2023-01-29T14:09:37.333Z,12.55
2023-01-29T14:12:05.275Z,13.85
2023-01-29T14:14:58.969Z,13.20
2023-01-29T14:17:27.682Z,12.57
2023-01-29T14:20:03.251Z,13.68
2023-01-29T14:22:32.623Z,11.60
2023-01-29T14:25:03.995Z,14.15
2023-01-29T14:27:31.980Z,12.38
2023-01-29T14:30:18.254Z,13.35
2023-01-29T14:32:49.663Z,12.60
2023-01-29T14:35:21.267Z,12.82
2023-01-29T14:37:50.448Z,12.15
2023-01-29T14:40:21.105Z,14.05
2023-01-29T14:43:00.927Z,13.20
2023-01-29T14:45:32.424Z,13.52
2023-01-29T14:48:18.182Z,12.38
2023-01-29T14:50:45.420Z,12.77
2023-01-29T14:53:15.465Z,12.85
2023-01-29T14:55:42.763Z,11.70
2023-01-29T14:58:33.138Z,12.57
2023-01-29T15:01:00.860Z,12.48
2023-01-29T15:03:43.836Z,12.75
2023-01-29T15:06:15.770Z,13.25
2023-01-29T15:08:46.607Z,11.95
2023-01-29T15:11:34.778Z,12.68
2023-01-29T15:14:02.396Z,12.38
2023-01-29T15:16:59.116Z,12.35
2023-01-29T15:19:36.672Z,12.65
2023-01-29T15:22:14.687Z,11.68
2023-01-29T15:24:43.247Z,12.63
2023-01-29T15:27:15.941Z,12.43
2023-01-29T15:29:45.238Z,12.18
2023-01-29T15:32:17.627Z,12.60
2023-01-29T15:34:45.068Z,12.13
2023-01-29T15:37:31.329Z,12.05
2023-01-29T15:39:59.575Z,12.43
2023-01-29T15:42:28.073Z,12.77
2023-01-29T15:44:58.181Z,11.98
2023-01-29T15:47:32.306Z,11.82
2023-01-29T15:50:00.893Z,12.05
2023-01-29T15:52:33.027Z,12.27
2023-01-29T15:55:03.872Z,11.93
2023-01-29T15:57:38.405Z,11.70
2023-01-29T16:00:06.268Z,11.95
2023-01-29T16:02:42.581Z,11.43
2023-01-29T16:05:20.190Z,10.82
2023-01-29T16:07:47.977Z,11.18
2023-01-29T16:10:17.377Z,10.80
2023-01-29T16:12:47.503Z,11.73
2023-01-29T16:15:19.156Z,10.07
2023-01-29T16:17:46.952Z,11.05
2023-01-29T16:20:31.796Z,10.60
2023-01-29T16:22:59.486Z,10.00
2023-01-29T16:25:26.872Z,11.15
2023-01-29T16:27:54.491Z,11.20
2023-01-29T16:30:26.549Z,11.93
2023-01-29T16:32:57.193Z,10.63
2023-01-29T16:35:24.691Z,12.18
2023-01-29T16:37:52.196Z,10.82
2023-01-29T16:40:32.653Z,11.68
2023-01-29T16:43:18.325Z,11.88
2023-01-29T16:46:03.608Z,11.48
2023-01-29T16:48:35.360Z,11.25
2023-01-29T16:51:07.419Z,11.98
2023-01-29T16:53:36.411Z,12.68
2023-01-29T16:56:05.972Z,11.43
2023-01-29T16:58:33.575Z,11.57
2023-01-29T17:01:01.118Z,11.57
2023-01-29T17:03:29.309Z,11.57
2023-01-29T17:05:56.877Z,12.30
2023-01-29T17:08:26.365Z,10.98
2023-01-29T17:10:54.000Z,11.48
2023-01-29T17:13:31.449Z,12.55
2023-01-29T17:16:05.841Z,12.23
2023-01-29T17:18:33.298Z,12.25
2023-01-29T17:21:00.577Z,12.05
2023-01-29T17:23:28.138Z,12.10
2023-01-29T17:25:55.651Z,12.25
2023-01-29T17:28:22.948Z,12.85
2023-01-29T17:31:05.265Z,12.57
2023-01-29T17:33:34.022Z,12.05
2023-01-29T17:36:01.813Z,13.02
2023-01-29T17:38:29.549Z,13.63
2023-01-29T17:41:00.063Z,12.75
2023-01-29T17:43:27.605Z,13.38
2023-01-29T17:45:55.155Z,13.00
2023-01-29T17:48:24.018Z,13.23
2023-01-29T17:50:53.816Z,13.07
2023-01-29T17:53:23.667Z,12.95
2023-01-29T17:55:53.130Z,12.90
2023-01-29T17:58:23.090Z,13.93
2023-01-29T18:00:50.903Z,12.60
2023-01-29T18:03:18.488Z,13.90
2023-01-29T18:05:46.609Z,12.82
2023-01-29T18:08:19.028Z,13.60
2023-01-29T18:10:46.871Z,13.32
2023-01-29T18:13:14.851Z,13.90
2023-01-29T18:15:42.654Z,13.13
2023-01-29T18:18:14.536Z,13.85
2023-01-29T18:20:42.457Z,12.68
2023-01-29T18:23:09.985Z,12.73
2023-01-29T18:25:37.887Z,12.40
2023-01-29T18:28:07.472Z,13.07
2023-01-29T18:30:34.933Z,13.80
2023-01-29T18:33:02.357Z,12.73
2023-01-29T18:35:30.504Z,12.50
2023-01-29T18:37:58.178Z,13.27
2023-01-29T18:40:30.020Z,13.93
2023-01-29T18:42:59.829Z,12.45
2023-01-29T18:45:28.342Z,12.73
2023-01-29T18:47:56.143Z,13.95
2023-01-29T18:50:25.246Z,12.85
2023-01-29T18:52:53.830Z,13.23
2023-01-29T18:55:21.678Z,12.88
2023-01-29T18:58:28.202Z,12.85
2023-01-29T19:00:36.725Z,12.10
2023-01-29T19:03:04.148Z,13.85
2023-01-29T19:05:34.040Z,13.43
2023-01-29T19:08:01.955Z,12.10
2023-01-29T19:10:29.363Z,12.27
2023-01-29T19:12:56.735Z,12.68
2023-01-29T19:15:24.149Z,12.95
2023-01-29T19:17:51.946Z,12.65
2023-01-29T19:20:19.855Z,12.85
2023-01-29T19:22:47.370Z,12.43
2023-01-29T19:25:14.838Z,12.82
2023-01-29T19:27:42.367Z,12.57
2023-01-29T19:30:10.851Z,12.80
2023-01-29T19:32:38.299Z,12.85
2023-01-29T19:35:12.585Z,13.23
2023-01-29T19:37:40.132Z,12.63
2023-01-29T19:40:08.313Z,13.13
2023-01-29T19:42:37.559Z,12.50
2023-01-29T19:45:05.696Z,12.40
2023-01-29T19:47:33.790Z,12.43
2023-01-29T19:50:01.328Z,12.90
2023-01-29T19:52:51.099Z,12.43
2023-01-29T19:55:20.348Z,13.07
2023-01-29T19:57:48.380Z,13.20
2023-01-29T20:00:18.093Z,12.82
2023-01-29T20:05:17.659Z,12.82
2023-01-29T20:07:45.677Z,13.15
2023-01-29T20:10:17.619Z,13.05
2023-01-29T20:12:46.139Z,12.77
2023-01-29T20:15:14.501Z,13.20
2023-01-29T20:17:45.971Z,13.68
2023-01-29T20:20:14.047Z,12.93
2023-01-29T20:22:44.770Z,13.25
2023-01-29T20:25:13.806Z,13.88
2023-01-29T20:27:41.855Z,14.43
2023-01-29T20:30:10.119Z,14.43
2023-01-29T20:32:38.868Z,12.80
2023-01-29T20:35:07.773Z,13.13
2023-01-29T20:37:35.109Z,12.93
2023-01-29T20:40:02.463Z,13.02
2023-01-29T20:42:29.722Z,14.30
2023-01-29T20:44:57.255Z,13.55
2023-01-29T20:47:24.567Z,13.75
2023-01-29T20:49:55.575Z,14.00
2023-01-29T20:52:22.922Z,13.90
2023-01-29T20:54:50.365Z,13.77
2023-01-29T20:57:17.747Z,13.77
2023-01-29T20:59:45.291Z,13.63
2023-01-29T21:02:14.175Z,13.82
2023-01-29T21:04:44.087Z,14.65
2023-01-29T21:07:11.806Z,13.05
2023-01-29T21:09:39.227Z,14.20
2023-01-29T21:12:07.698Z,13.48
2023-01-29T21:14:35.298Z,12.90
2023-01-29T21:17:03.125Z,13.57
2023-01-29T21:19:46.804Z,12.93
2023-01-29T21:22:17.491Z,13.48
2023-01-29T21:24:44.878Z,13.20
2023-01-29T21:27:12.149Z,13.75
2023-01-29T21:29:39.526Z,14.07
2023-01-29T21:32:07.040Z,14.57
2023-01-29T21:34:34.374Z,14.10
2023-01-29T21:37:01.757Z,14.10
2023-01-29T21:39:29.164Z,12.93
2023-01-29T21:42:25.491Z,13.98
2023-01-29T21:44:52.829Z,13.52
2023-01-29T21:47:22.186Z,13.90
2023-01-29T21:49:49.795Z,14.55
2023-01-29T21:52:17.177Z,13.55
2023-01-29T21:54:48.953Z,14.63
2023-01-29T21:57:17.076Z,13.35
2023-01-29T21:59:51.383Z,13.70
2023-01-29T22:02:20.917Z,13.10
2023-01-29T22:04:48.297Z,13.52
2023-01-29T22:07:15.547Z,13.95
2023-01-29T22:09:43.012Z,13.60
2023-01-29T22:12:10.896Z,14.13
2023-01-29T22:14:38.171Z,14.00
2023-01-29T22:17:06.081Z,14.10
2023-01-29T22:19:33.831Z,13.52
2023-01-29T22:22:01.203Z,13.85
2023-01-29T22:24:28.502Z,13.13
2023-01-29T22:26:55.861Z,13.68
2023-01-29T22:29:23.413Z,13.57
2023-01-29T22:31:50.699Z,13.00
2023-01-29T22:34:18.052Z,14.50
2023-01-29T22:36:45.332Z,12.75
2023-01-29T22:39:12.793Z,14.18
2023-01-29T22:41:40.248Z,13.43
2023-01-29T22:44:07.547Z,13.70
2023-01-29T22:46:35.043Z,13.07
2023-01-29T22:49:02.462Z,12.60
2023-01-29T22:51:29.810Z,12.80
2023-01-29T22:53:57.857Z,13.45
2023-01-29T22:56:26.301Z,12.98
2023-01-29T22:58:54.681Z,12.48
2023-01-29T23:01:23.330Z,13.10
2023-01-29T23:03:50.803Z,13.38
2023-01-29T23:06:18.525Z,12.98
2023-01-29T23:08:45.874Z,13.10
2023-01-29T23:11:15.263Z,12.82
2023-01-29T23:13:47.228Z,12.77
2023-01-29T23:16:15.327Z,12.82
2023-01-29T23:18:43.073Z,12.48
2023-01-29T23:21:10.834Z,12.35
2023-01-29T23:23:38.633Z,11.70
2023-01-29T23:26:25.949Z,11.98
2023-01-29T23:28:53.498Z,11.82
2023-01-29T23:31:20.961Z,12.27
2023-01-29T23:33:48.660Z,12.23
2023-01-29T23:36:16.156Z,12.10
2023-01-29T23:38:43.717Z,12.88
2023-01-29T23:41:10.977Z,12.00
2023-01-29T23:43:38.270Z,12.95
2023-01-29T23:46:05.693Z,12.02
2023-01-29T23:48:32.963Z,11.65
2023-01-29T23:51:00.279Z,12.27
2023-01-29T23:53:27.578Z,12.70
2023-01-29T23:55:57.834Z,12.32
2023-01-29T23:58:25.155Z,12.10
